sensor_id;sensor_type;location;lat;lon;timestamp;pressure;altitude;pressure_sealevel;temperature;humidity
85764;BME280;76207;39.772;2.706;2024-03-07T00:00:27;101752.39;;;9.82;61.44
85764;BME280;76207;39.772;2.706;2024-03-07T00:02:53;101746.95;;;9.78;61.48
85764;BME280;76207;39.772;2.706;2024-03-07T00:05:20;101745.25;;;9.73;61.26
85764;BME280;76207;39.772;2.706;2024-03-07T00:07:50;101744.16;;;9.72;61.29
85764;BME280;76207;39.772;2.706;2024-03-07T00:10:15;101736.58;;;9.71;61.40
85764;BME280;76207;39.772;2.706;2024-03-07T00:12:42;101738.47;;;9.69;61.51
85764;BME280;76207;39.772;2.706;2024-03-07T00:15:08;101741.30;;;9.68;61.42
85764;BME280;76207;39.772;2.706;2024-03-07T00:17:36;101738.95;;;9.68;61.58
85764;BME280;76207;39.772;2.706;2024-03-07T00:20:02;101736.36;;;9.68;61.62
85764;BME280;76207;39.772;2.706;2024-03-07T00:22:30;101737.20;;;9.65;61.45
85764;BME280;76207;39.772;2.706;2024-03-07T00:24:56;101739.57;;;9.63;61.52
85764;BME280;76207;39.772;2.706;2024-03-07T00:27:23;101736.73;;;9.59;61.59
85764;BME280;76207;39.772;2.706;2024-03-07T00:29:49;101734.34;;;9.54;61.57
85764;BME280;76207;39.772;2.706;2024-03-07T00:32:22;101733.23;;;9.51;61.46
85764;BME280;76207;39.772;2.706;2024-03-07T00:34:48;101734.17;;;9.47;61.53
85764;BME280;76207;39.772;2.706;2024-03-07T00:37:14;101731.13;;;9.43;61.36
85764;BME280;76207;39.772;2.706;2024-03-07T00:39:41;101728.83;;;9.39;61.43
85764;BME280;76207;39.772;2.706;2024-03-07T00:42:07;101732.89;;;9.34;61.25
85764;BME280;76207;39.772;2.706;2024-03-07T00:44:33;101726.93;;;9.29;61.23
85764;BME280;76207;39.772;2.706;2024-03-07T00:47:03;101730.27;;;9.24;61.13
85764;BME280;76207;39.772;2.706;2024-03-07T00:49:29;101728.46;;;9.20;61.34
85764;BME280;76207;39.772;2.706;2024-03-07T00:51:57;101721.60;;;9.20;61.11
85764;BME280;76207;39.772;2.706;2024-03-07T00:54:23;101723.23;;;9.18;60.82
85764;BME280;76207;39.772;2.706;2024-03-07T00:56:50;101717.52;;;9.17;60.91
85764;BME280;76207;39.772;2.706;2024-03-07T00:59:16;101714.85;;;9.16;60.96
85764;BME280;76207;39.772;2.706;2024-03-07T01:01:42;101712.80;;;9.16;60.99
85764;BME280;76207;39.772;2.706;2024-03-07T01:04:08;101711.05;;;9.15;60.80
85764;BME280;76207;39.772;2.706;2024-03-07T01:06:34;101708.83;;;9.15;60.92
85764;BME280;76207;39.772;2.706;2024-03-07T01:09:02;101701.99;;;9.13;61.10
85764;BME280;76207;39.772;2.706;2024-03-07T01:11:28;101699.60;;;9.11;61.09
85764;BME280;76207;39.772;2.706;2024-03-07T01:13:54;101696.77;;;9.07;61.28
85764;BME280;76207;39.772;2.706;2024-03-07T01:16:21;101690.36;;;9.03;61.16
85764;BME280;76207;39.772;2.706;2024-03-07T01:18:47;101691.84;;;9.00;61.18
85764;BME280;76207;39.772;2.706;2024-03-07T01:21:13;101690.29;;;8.95;61.04
85764;BME280;76207;39.772;2.706;2024-03-07T01:23:38;101686.90;;;8.91;61.02
85764;BME280;76207;39.772;2.706;2024-03-07T01:26:04;101683.64;;;8.86;61.15
85764;BME280;76207;39.772;2.706;2024-03-07T01:28:30;101677.45;;;8.81;61.02
85764;BME280;76207;39.772;2.706;2024-03-07T01:30:57;101670.43;;;8.78;61.35
85764;BME280;76207;39.772;2.706;2024-03-07T01:33:23;101662.83;;;8.77;61.30
85764;BME280;76207;39.772;2.706;2024-03-07T01:35:49;101659.79;;;8.77;61.37
85764;BME280;76207;39.772;2.706;2024-03-07T01:38:15;101653.55;;;8.78;61.51
85764;BME280;76207;39.772;2.706;2024-03-07T01:40:42;101655.33;;;8.79;61.47
85764;BME280;76207;39.772;2.706;2024-03-07T01:43:08;101655.98;;;8.79;61.61
85764;BME280;76207;39.772;2.706;2024-03-07T01:45:35;101656.60;;;8.78;61.48
85764;BME280;76207;39.772;2.706;2024-03-07T01:48:09;101654.70;;;8.75;61.64
85764;BME280;76207;39.772;2.706;2024-03-07T01:50:35;101647.64;;;8.72;61.57
85764;BME280;76207;39.772;2.706;2024-03-07T01:53:05;101644.40;;;8.69;61.93
85764;BME280;76207;39.772;2.706;2024-03-07T01:55:32;101640.85;;;8.67;62.17
85764;BME280;76207;39.772;2.706;2024-03-07T01:58:02;101634.20;;;8.65;62.47
85764;BME280;76207;39.772;2.706;2024-03-07T02:00:30;101630.73;;;8.62;62.83
85764;BME280;76207;39.772;2.706;2024-03-07T02:02:56;101623.39;;;8.60;62.96
85764;BME280;76207;39.772;2.706;2024-03-07T02:05:23;101620.46;;;8.59;63.27
85764;BME280;76207;39.772;2.706;2024-03-07T02:07:50;101619.44;;;8.61;63.41
85764;BME280;76207;39.772;2.706;2024-03-07T02:10:16;101617.00;;;8.63;63.32
85764;BME280;76207;39.772;2.706;2024-03-07T02:12:43;101612.67;;;8.65;63.18
85764;BME280;76207;39.772;2.706;2024-03-07T02:15:08;101595.29;;;8.65;63.43
85764;BME280;76207;39.772;2.706;2024-03-07T02:17:35;101584.23;;;8.65;63.52
85764;BME280;76207;39.772;2.706;2024-03-07T02:20:01;101580.38;;;8.64;63.43
85764;BME280;76207;39.772;2.706;2024-03-07T02:22:29;101574.56;;;8.61;63.81
85764;BME280;76207;39.772;2.706;2024-03-07T02:24:55;101577.10;;;8.61;63.36
85764;BME280;76207;39.772;2.706;2024-03-07T02:27:20;101569.94;;;8.61;63.45
85764;BME280;76207;39.772;2.706;2024-03-07T02:29:46;101563.39;;;8.58;63.34
85764;BME280;76207;39.772;2.706;2024-03-07T02:32:12;101567.77;;;8.57;63.12
85764;BME280;76207;39.772;2.706;2024-03-07T02:34:38;101559.89;;;8.55;63.32
85764;BME280;76207;39.772;2.706;2024-03-07T02:37:04;101562.30;;;8.52;63.13
85764;BME280;76207;39.772;2.706;2024-03-07T02:39:29;101551.33;;;8.52;62.74
85764;BME280;76207;39.772;2.706;2024-03-07T02:41:55;101547.01;;;8.53;62.27
85764;BME280;76207;39.772;2.706;2024-03-07T02:44:21;101546.48;;;8.55;62.00
85764;BME280;76207;39.772;2.706;2024-03-07T02:46:46;101540.02;;;8.55;61.87
85764;BME280;76207;39.772;2.706;2024-03-07T02:49:13;101536.17;;;8.57;61.81
85764;BME280;76207;39.772;2.706;2024-03-07T02:51:40;101533.75;;;8.56;61.46
85764;BME280;76207;39.772;2.706;2024-03-07T02:54:07;101528.22;;;8.55;61.44
85764;BME280;76207;39.772;2.706;2024-03-07T02:56:33;101525.58;;;8.54;61.31
85764;BME280;76207;39.772;2.706;2024-03-07T02:58:58;101519.84;;;8.52;61.10
85764;BME280;76207;39.772;2.706;2024-03-07T03:01:24;101518.41;;;8.49;60.95
85764;BME280;76207;39.772;2.706;2024-03-07T03:03:49;101513.77;;;8.46;60.88
85764;BME280;76207;39.772;2.706;2024-03-07T03:06:15;101512.27;;;8.44;61.18
85764;BME280;76207;39.772;2.706;2024-03-07T03:08:41;101513.85;;;8.43;61.32
85764;BME280;76207;39.772;2.706;2024-03-07T03:11:06;101513.29;;;8.42;61.19
85764;BME280;76207;39.772;2.706;2024-03-07T03:13:37;101506.27;;;8.41;61.49
85764;BME280;76207;39.772;2.706;2024-03-07T03:16:04;101498.20;;;8.40;61.23
85764;BME280;76207;39.772;2.706;2024-03-07T03:18:33;101494.98;;;8.39;61.06
85764;BME280;76207;39.772;2.706;2024-03-07T03:21:04;101493.06;;;8.38;61.02
85764;BME280;76207;39.772;2.706;2024-03-07T03:23:30;101490.34;;;8.40;61.04
85764;BME280;76207;39.772;2.706;2024-03-07T03:25:56;101480.83;;;8.41;61.25
85764;BME280;76207;39.772;2.706;2024-03-07T03:28:22;101477.30;;;8.42;61.25
85764;BME280;76207;39.772;2.706;2024-03-07T03:30:49;101469.27;;;8.41;61.17
85764;BME280;76207;39.772;2.706;2024-03-07T03:33:15;101465.66;;;8.41;60.89
85764;BME280;76207;39.772;2.706;2024-03-07T03:35:41;101465.99;;;8.41;60.95
85764;BME280;76207;39.772;2.706;2024-03-07T03:38:07;101465.48;;;8.41;60.77
85764;BME280;76207;39.772;2.706;2024-03-07T03:40:33;101460.75;;;8.41;60.63
85764;BME280;76207;39.772;2.706;2024-03-07T03:42:59;101458.52;;;8.41;60.63
85764;BME280;76207;39.772;2.706;2024-03-07T03:45:26;101457.27;;;8.40;60.59
85764;BME280;76207;39.772;2.706;2024-03-07T03:47:52;101452.01;;;8.38;60.65
85764;BME280;76207;39.772;2.706;2024-03-07T03:50:18;101448.20;;;8.35;60.35
85764;BME280;76207;39.772;2.706;2024-03-07T03:52:44;101445.99;;;8.33;60.76
85764;BME280;76207;39.772;2.706;2024-03-07T03:55:09;101438.10;;;8.30;60.92
85764;BME280;76207;39.772;2.706;2024-03-07T03:57:35;101434.18;;;8.28;60.69
85764;BME280;76207;39.772;2.706;2024-03-07T04:00:04;101431.13;;;8.26;60.60
85764;BME280;76207;39.772;2.706;2024-03-07T04:02:35;101431.79;;;8.24;60.66
85764;BME280;76207;39.772;2.706;2024-03-07T04:05:04;101430.33;;;8.22;60.81
85764;BME280;76207;39.772;2.706;2024-03-07T04:07:30;101428.36;;;8.20;60.87
85764;BME280;76207;39.772;2.706;2024-03-07T04:09:58;101425.10;;;8.18;60.96
85764;BME280;76207;39.772;2.706;2024-03-07T04:12:24;101420.91;;;8.16;61.07
85764;BME280;76207;39.772;2.706;2024-03-07T04:14:53;101417.73;;;8.17;60.96
85764;BME280;76207;39.772;2.706;2024-03-07T04:17:20;101414.52;;;8.18;61.15
85764;BME280;76207;39.772;2.706;2024-03-07T04:19:46;101416.69;;;8.19;61.25
85764;BME280;76207;39.772;2.706;2024-03-07T04:22:11;101417.19;;;8.21;61.20
85764;BME280;76207;39.772;2.706;2024-03-07T04:24:37;101415.00;;;8.22;61.10
85764;BME280;76207;39.772;2.706;2024-03-07T04:27:04;101420.59;;;8.21;61.11
85764;BME280;76207;39.772;2.706;2024-03-07T04:29:34;101423.54;;;8.19;61.35
85764;BME280;76207;39.772;2.706;2024-03-07T04:32:00;101423.98;;;8.19;61.40
85764;BME280;76207;39.772;2.706;2024-03-07T04:34:29;101425.87;;;8.17;61.45
85764;BME280;76207;39.772;2.706;2024-03-07T04:36:58;101422.92;;;8.14;61.48
85764;BME280;76207;39.772;2.706;2024-03-07T04:39:24;101420.52;;;8.11;61.49
85764;BME280;76207;39.772;2.706;2024-03-07T04:41:56;101421.67;;;8.08;61.51
85764;BME280;76207;39.772;2.706;2024-03-07T04:44:21;101425.80;;;8.06;61.86
85764;BME280;76207;39.772;2.706;2024-03-07T04:46:50;101420.58;;;8.00;61.40
85764;BME280;76207;39.772;2.706;2024-03-07T04:49:21;101414.64;;;7.93;61.69
85764;BME280;76207;39.772;2.706;2024-03-07T04:51:49;101412.34;;;7.90;61.68
85764;BME280;76207;39.772;2.706;2024-03-07T04:54:16;101420.02;;;7.88;61.71
85764;BME280;76207;39.772;2.706;2024-03-07T04:56:41;101419.23;;;7.88;61.93
85764;BME280;76207;39.772;2.706;2024-03-07T04:59:07;101424.79;;;7.90;61.91
85764;BME280;76207;39.772;2.706;2024-03-07T05:01:33;101419.86;;;7.92;62.32
85764;BME280;76207;39.772;2.706;2024-03-07T05:03:58;101413.07;;;7.95;61.97
85764;BME280;76207;39.772;2.706;2024-03-07T05:06:26;101410.46;;;7.97;62.13
85764;BME280;76207;39.772;2.706;2024-03-07T05:08:51;101410.77;;;7.99;62.14
85764;BME280;76207;39.772;2.706;2024-03-07T05:11:17;101409.75;;;7.99;62.45
85764;BME280;76207;39.772;2.706;2024-03-07T05:13:42;101405.73;;;7.98;62.39
85764;BME280;76207;39.772;2.706;2024-03-07T05:16:08;101407.69;;;7.96;62.36
85764;BME280;76207;39.772;2.706;2024-03-07T05:18:33;101407.41;;;7.94;62.32
85764;BME280;76207;39.772;2.706;2024-03-07T05:20:59;101407.52;;;7.94;62.32
85764;BME280;76207;39.772;2.706;2024-03-07T05:23:45;101407.70;;;7.92;62.57
85764;BME280;76207;39.772;2.706;2024-03-07T05:26:10;101416.23;;;7.90;62.79
85764;BME280;76207;39.772;2.706;2024-03-07T05:28:36;101419.86;;;7.88;62.91
85764;BME280;76207;39.772;2.706;2024-03-07T05:31:02;101424.79;;;7.85;62.73
85764;BME280;76207;39.772;2.706;2024-03-07T05:33:29;101424.58;;;7.82;63.15
85764;BME280;76207;39.772;2.706;2024-03-07T05:35:55;101429.06;;;7.83;63.20
85764;BME280;76207;39.772;2.706;2024-03-07T05:38:38;101424.04;;;7.84;63.17
85764;BME280;76207;39.772;2.706;2024-03-07T05:41:04;101428.41;;;7.86;63.04
85764;BME280;76207;39.772;2.706;2024-03-07T05:43:30;101422.58;;;7.88;63.14
85764;BME280;76207;39.772;2.706;2024-03-07T05:45:56;101424.98;;;7.88;62.97
85764;BME280;76207;39.772;2.706;2024-03-07T05:48:22;101424.27;;;7.87;63.21
85764;BME280;76207;39.772;2.706;2024-03-07T05:50:47;101420.80;;;7.89;61.83
85764;BME280;76207;39.772;2.706;2024-03-07T05:53:12;101425.82;;;7.95;62.39
85764;BME280;76207;39.772;2.706;2024-03-07T05:55:38;101426.60;;;7.99;62.51
85764;BME280;76207;39.772;2.706;2024-03-07T05:58:03;101427.63;;;8.01;62.39
85764;BME280;76207;39.772;2.706;2024-03-07T06:00:29;101426.33;;;8.11;60.08
85764;BME280;76207;39.772;2.706;2024-03-07T06:02:54;101424.52;;;8.33;59.86
85764;BME280;76207;39.772;2.706;2024-03-07T06:05:20;101415.13;;;8.50;59.34
85764;BME280;76207;39.772;2.706;2024-03-07T06:07:45;101409.95;;;8.68;59.01
85764;BME280;76207;39.772;2.706;2024-03-07T06:10:11;101401.46;;;8.81;58.58
85764;BME280;76207;39.772;2.706;2024-03-07T06:12:36;101406.35;;;8.95;58.41
85764;BME280;76207;39.772;2.706;2024-03-07T06:15:06;101402.54;;;9.04;58.75
85764;BME280;76207;39.772;2.706;2024-03-07T06:17:31;101403.00;;;9.11;58.89
85764;BME280;76207;39.772;2.706;2024-03-07T06:19:57;101398.70;;;9.15;58.89
85764;BME280;76207;39.772;2.706;2024-03-07T06:22:24;101404.91;;;9.21;58.94
85764;BME280;76207;39.772;2.706;2024-03-07T06:24:50;101405.60;;;9.37;58.86
85764;BME280;76207;39.772;2.706;2024-03-07T06:27:15;101410.30;;;9.49;58.92
85764;BME280;76207;39.772;2.706;2024-03-07T06:29:51;101411.17;;;9.62;58.59
85764;BME280;76207;39.772;2.706;2024-03-07T06:32:18;101414.39;;;9.80;58.34
85764;BME280;76207;39.772;2.706;2024-03-07T06:34:44;101420.88;;;9.90;58.58
85764;BME280;76207;39.772;2.706;2024-03-07T06:37:09;101421.16;;;10.00;58.41
85764;BME280;76207;39.772;2.706;2024-03-07T06:39:35;101419.90;;;10.12;58.33
85764;BME280;76207;39.772;2.706;2024-03-07T06:42:00;101416.77;;;10.30;58.07
85764;BME280;76207;39.772;2.706;2024-03-07T06:44:26;101417.15;;;10.43;57.47
85764;BME280;76207;39.772;2.706;2024-03-07T06:46:52;101419.72;;;10.52;57.46
85764;BME280;76207;39.772;2.706;2024-03-07T06:49:17;101415.23;;;10.59;57.34
85764;BME280;76207;39.772;2.706;2024-03-07T06:51:43;101412.38;;;10.68;57.76
85764;BME280;76207;39.772;2.706;2024-03-07T06:54:09;101412.33;;;10.73;57.89
85764;BME280;76207;39.772;2.706;2024-03-07T06:56:36;101413.70;;;10.79;57.69
85764;BME280;76207;39.772;2.706;2024-03-07T06:59:02;101406.59;;;10.83;57.02
85764;BME280;76207;39.772;2.706;2024-03-07T07:01:30;101406.63;;;10.92;56.28
85764;BME280;76207;39.772;2.706;2024-03-07T07:03:56;101407.81;;;11.00;56.42
85764;BME280;76207;39.772;2.706;2024-03-07T07:06:25;101412.59;;;11.17;56.35
85764;BME280;76207;39.772;2.706;2024-03-07T07:08:51;101413.36;;;11.50;55.00
85764;BME280;76207;39.772;2.706;2024-03-07T07:11:17;101407.66;;;11.85;54.24
85764;BME280;76207;39.772;2.706;2024-03-07T07:13:42;101401.92;;;12.20;53.72
85764;BME280;76207;39.772;2.706;2024-03-07T07:16:08;101398.30;;;12.60;53.43
85764;BME280;76207;39.772;2.706;2024-03-07T07:18:35;101393.04;;;13.10;52.72
85764;BME280;76207;39.772;2.706;2024-03-07T07:21:01;101394.95;;;13.51;51.56
85764;BME280;76207;39.772;2.706;2024-03-07T07:23:28;101398.67;;;13.80;50.42
85764;BME280;76207;39.772;2.706;2024-03-07T07:25:53;101405.63;;;14.10;50.34
85764;BME280;76207;39.772;2.706;2024-03-07T07:28:19;101404.77;;;14.58;49.84
85764;BME280;76207;39.772;2.706;2024-03-07T07:30:44;101404.79;;;15.12;47.31
85764;BME280;76207;39.772;2.706;2024-03-07T07:33:11;101405.55;;;15.66;47.89
85764;BME280;76207;39.772;2.706;2024-03-07T07:35:37;101410.52;;;16.33;45.63
85764;BME280;76207;39.772;2.706;2024-03-07T07:38:02;101408.17;;;17.08;44.94
85764;BME280;76207;39.772;2.706;2024-03-07T07:40:28;101408.29;;;17.66;43.15
85764;BME280;76207;39.772;2.706;2024-03-07T07:42:56;101416.47;;;17.93;43.06
85764;BME280;76207;39.772;2.706;2024-03-07T07:45:23;101420.14;;;18.16;42.59
85764;BME280;76207;39.772;2.706;2024-03-07T07:47:50;101421.95;;;18.30;41.84
85764;BME280;76207;39.772;2.706;2024-03-07T07:50:21;101413.33;;;18.31;42.36
85764;BME280;76207;39.772;2.706;2024-03-07T07:52:57;101407.51;;;18.45;41.27
85764;BME280;76207;39.772;2.706;2024-03-07T07:55:25;101406.50;;;18.51;41.19
85764;BME280;76207;39.772;2.706;2024-03-07T07:57:53;101401.17;;;18.13;42.13
85764;BME280;76207;39.772;2.706;2024-03-07T08:00:21;101398.89;;;17.75;42.28
85764;BME280;76207;39.772;2.706;2024-03-07T08:03:01;101398.27;;;17.31;42.55
85764;BME280;76207;39.772;2.706;2024-03-07T08:05:28;101403.61;;;16.87;43.15
85764;BME280;76207;39.772;2.706;2024-03-07T08:07:57;101403.55;;;16.45;43.90
85764;BME280;76207;39.772;2.706;2024-03-07T08:10:26;101400.16;;;16.02;44.63
85764;BME280;76207;39.772;2.706;2024-03-07T08:12:55;101400.92;;;15.66;45.51
85764;BME280;76207;39.772;2.706;2024-03-07T08:15:20;101403.97;;;15.37;45.78
85764;BME280;76207;39.772;2.706;2024-03-07T08:17:47;101405.61;;;15.19;46.51
85764;BME280;76207;39.772;2.706;2024-03-07T08:20:17;101421.27;;;15.06;46.50
85764;BME280;76207;39.772;2.706;2024-03-07T08:22:48;101422.30;;;15.02;47.37
85764;BME280;76207;39.772;2.706;2024-03-07T08:25:17;101420.04;;;15.02;47.03
85764;BME280;76207;39.772;2.706;2024-03-07T08:27:45;101423.90;;;15.07;47.05
85764;BME280;76207;39.772;2.706;2024-03-07T08:30:12;101417.63;;;15.13;47.08
85764;BME280;76207;39.772;2.706;2024-03-07T08:32:48;101409.14;;;15.24;45.56
85764;BME280;76207;39.772;2.706;2024-03-07T08:35:14;101408.85;;;15.38;44.13
85764;BME280;76207;39.772;2.706;2024-03-07T08:37:46;101402.36;;;15.51;44.42
85764;BME280;76207;39.772;2.706;2024-03-07T08:40:15;101393.62;;;15.69;45.36
85764;BME280;76207;39.772;2.706;2024-03-07T08:42:47;101398.96;;;15.89;44.45
85764;BME280;76207;39.772;2.706;2024-03-07T08:45:13;101399.55;;;16.08;43.86
85764;BME280;76207;39.772;2.706;2024-03-07T08:47:44;101395.64;;;16.28;42.63
85764;BME280;76207;39.772;2.706;2024-03-07T08:50:09;101393.80;;;16.51;42.38
85764;BME280;76207;39.772;2.706;2024-03-07T08:52:36;101385.82;;;16.78;41.08
85764;BME280;76207;39.772;2.706;2024-03-07T08:55:21;101384.87;;;17.09;40.35
85764;BME280;76207;39.772;2.706;2024-03-07T08:57:47;101379.31;;;17.43;40.50
85764;BME280;76207;39.772;2.706;2024-03-07T09:00:15;101379.55;;;17.76;39.78
85764;BME280;76207;39.772;2.706;2024-03-07T09:02:52;101377.77;;;18.07;37.95
85764;BME280;76207;39.772;2.706;2024-03-07T09:05:19;101376.21;;;18.29;37.14
85764;BME280;76207;39.772;2.706;2024-03-07T09:07:46;101375.00;;;18.47;36.85
85764;BME280;76207;39.772;2.706;2024-03-07T09:10:12;101376.86;;;18.63;36.13
85764;BME280;76207;39.772;2.706;2024-03-07T09:12:40;101371.54;;;18.82;35.89
85764;BME280;76207;39.772;2.706;2024-03-07T09:15:06;101372.65;;;19.10;33.94
85764;BME280;76207;39.772;2.706;2024-03-07T09:17:32;101366.19;;;19.27;32.70
85764;BME280;76207;39.772;2.706;2024-03-07T09:19:57;101365.61;;;19.53;34.09
85764;BME280;76207;39.772;2.706;2024-03-07T09:22:23;101365.29;;;19.81;34.06
85764;BME280;76207;39.772;2.706;2024-03-07T09:24:49;101363.16;;;20.09;33.86
85764;BME280;76207;39.772;2.706;2024-03-07T09:27:14;101365.51;;;20.28;32.35
85764;BME280;76207;39.772;2.706;2024-03-07T09:29:45;101367.96;;;20.37;30.65
85764;BME280;76207;39.772;2.706;2024-03-07T09:32:13;101363.16;;;20.32;30.56
85764;BME280;76207;39.772;2.706;2024-03-07T09:34:38;101361.86;;;20.37;31.54
85764;BME280;76207;39.772;2.706;2024-03-07T09:37:04;101353.34;;;20.52;31.68
85764;BME280;76207;39.772;2.706;2024-03-07T09:39:32;101349.15;;;20.68;31.19
85764;BME280;76207;39.772;2.706;2024-03-07T09:42:01;101351.30;;;20.80;32.10
85764;BME280;76207;39.772;2.706;2024-03-07T09:44:28;101351.08;;;20.95;31.62
85764;BME280;76207;39.772;2.706;2024-03-07T09:46:59;101345.11;;;21.12;31.41
85764;BME280;76207;39.772;2.706;2024-03-07T09:49:28;101343.48;;;21.26;32.06
85764;BME280;76207;39.772;2.706;2024-03-07T09:51:55;101345.13;;;21.40;31.89
85764;BME280;76207;39.772;2.706;2024-03-07T09:54:25;101349.49;;;21.51;30.46
85764;BME280;76207;39.772;2.706;2024-03-07T09:56:58;101352.53;;;21.57;29.76
85764;BME280;76207;39.772;2.706;2024-03-07T09:59:28;101345.31;;;21.63;31.09
85764;BME280;76207;39.772;2.706;2024-03-07T10:01:59;101344.61;;;21.74;30.90
85764;BME280;76207;39.772;2.706;2024-03-07T10:04:51;101348.96;;;21.73;30.24
85764;BME280;76207;39.772;2.706;2024-03-07T10:07:19;101346.32;;;21.49;29.55
85764;BME280;76207;39.772;2.706;2024-03-07T10:09:45;101341.27;;;21.38;31.35
85764;BME280;76207;39.772;2.706;2024-03-07T10:12:11;101342.35;;;21.51;31.87
85764;BME280;76207;39.772;2.706;2024-03-07T10:15:02;101341.79;;;21.61;31.45
85764;BME280;76207;39.772;2.706;2024-03-07T10:17:28;101341.15;;;21.74;31.68
85764;BME280;76207;39.772;2.706;2024-03-07T10:19:54;101339.23;;;21.87;31.40
85764;BME280;76207;39.772;2.706;2024-03-07T10:22:21;101337.94;;;21.93;29.93
85764;BME280;76207;39.772;2.706;2024-03-07T10:24:56;101323.80;;;21.79;30.91
85764;BME280;76207;39.772;2.706;2024-03-07T10:27:26;101321.47;;;21.63;31.23
85764;BME280;76207;39.772;2.706;2024-03-07T10:29:53;101327.58;;;21.53;30.94
85764;BME280;76207;39.772;2.706;2024-03-07T10:32:20;101327.85;;;21.28;31.64
85764;BME280;76207;39.772;2.706;2024-03-07T10:34:46;101323.73;;;21.24;31.94
85764;BME280;76207;39.772;2.706;2024-03-07T10:37:14;101323.85;;;21.29;32.01
85764;BME280;76207;39.772;2.706;2024-03-07T10:39:46;101319.95;;;21.34;32.02
85764;BME280;76207;39.772;2.706;2024-03-07T10:42:15;101311.86;;;21.50;32.24
85764;BME280;76207;39.772;2.706;2024-03-07T10:44:45;101307.98;;;21.58;31.42
85764;BME280;76207;39.772;2.706;2024-03-07T10:47:16;101302.21;;;21.68;31.16
85764;BME280;76207;39.772;2.706;2024-03-07T10:49:53;101304.16;;;21.71;30.61
85764;BME280;76207;39.772;2.706;2024-03-07T10:52:39;101290.75;;;21.70;30.85
85764;BME280;76207;39.772;2.706;2024-03-07T10:58:44;101291.36;;;21.64;31.19
85764;BME280;76207;39.772;2.706;2024-03-07T11:01:07;101283.56;;;21.67;31.93
85764;BME280;76207;39.772;2.706;2024-03-07T11:03:36;101282.73;;;21.82;31.39
85764;BME280;76207;39.772;2.706;2024-03-07T11:06:02;101278.15;;;21.91;30.86
85764;BME280;76207;39.772;2.706;2024-03-07T11:08:37;101273.19;;;21.84;31.43
85764;BME280;76207;39.772;2.706;2024-03-07T11:11:06;101266.45;;;21.76;31.94
85764;BME280;76207;39.772;2.706;2024-03-07T11:13:33;101262.87;;;21.83;32.41
85764;BME280;76207;39.772;2.706;2024-03-07T11:16:00;101255.42;;;21.98;31.80
85764;BME280;76207;39.772;2.706;2024-03-07T11:18:26;101246.42;;;22.02;32.48
85764;BME280;76207;39.772;2.706;2024-03-07T11:20:52;101241.94;;;22.06;32.78
85764;BME280;76207;39.772;2.706;2024-03-07T11:23:25;101237.70;;;22.14;32.86
85764;BME280;76207;39.772;2.706;2024-03-07T11:26:04;101238.36;;;22.25;32.54
85764;BME280;76207;39.772;2.706;2024-03-07T11:28:33;101231.82;;;22.32;32.44
85764;BME280;76207;39.772;2.706;2024-03-07T11:31:16;101223.14;;;22.35;32.37
85764;BME280;76207;39.772;2.706;2024-03-07T11:36:46;101219.12;;;22.50;33.14
85764;BME280;76207;39.772;2.706;2024-03-07T11:42:09;101204.48;;;22.70;32.34
85764;BME280;76207;39.772;2.706;2024-03-07T11:44:45;101199.16;;;22.80;32.89
85764;BME280;76207;39.772;2.706;2024-03-07T11:47:12;101191.38;;;22.87;33.02
85764;BME280;76207;39.772;2.706;2024-03-07T11:49:39;101177.75;;;23.04;33.57
85764;BME280;76207;39.772;2.706;2024-03-07T11:52:05;101168.48;;;23.27;33.58
85764;BME280;76207;39.772;2.706;2024-03-07T11:54:39;101165.83;;;23.50;32.57
85764;BME280;76207;39.772;2.706;2024-03-07T11:57:15;101163.78;;;23.62;32.78
85764;BME280;76207;39.772;2.706;2024-03-07T11:59:42;101164.87;;;23.65;31.42
85764;BME280;76207;39.772;2.706;2024-03-07T12:02:12;101156.06;;;23.55;31.61
85764;BME280;76207;39.772;2.706;2024-03-07T12:04:39;101143.48;;;23.56;31.20
85764;BME280;76207;39.772;2.706;2024-03-07T12:07:05;101142.48;;;23.63;32.15
85764;BME280;76207;39.772;2.706;2024-03-07T12:09:32;101143.50;;;23.58;32.26
85764;BME280;76207;39.772;2.706;2024-03-07T12:12:02;101135.25;;;23.49;32.38
85764;BME280;76207;39.772;2.706;2024-03-07T12:14:28;101138.23;;;23.52;32.92
85764;BME280;76207;39.772;2.706;2024-03-07T12:16:54;101132.13;;;23.54;32.76
85764;BME280;76207;39.772;2.706;2024-03-07T12:19:22;101128.92;;;23.42;32.39
85764;BME280;76207;39.772;2.706;2024-03-07T12:21:48;101130.58;;;23.23;32.26
85764;BME280;76207;39.772;2.706;2024-03-07T12:24:15;101139.04;;;23.09;32.68
85764;BME280;76207;39.772;2.706;2024-03-07T12:26:41;101139.23;;;23.13;33.36
85764;BME280;76207;39.772;2.706;2024-03-07T12:29:10;101128.70;;;23.30;33.17
85764;BME280;76207;39.772;2.706;2024-03-07T12:31:41;101128.75;;;23.44;32.69
85764;BME280;76207;39.772;2.706;2024-03-07T12:34:08;101123.73;;;23.53;32.18
85764;BME280;76207;39.772;2.706;2024-03-07T12:36:39;101116.92;;;23.53;32.29
85764;BME280;76207;39.772;2.706;2024-03-07T12:39:33;101123.40;;;23.56;32.48
85764;BME280;76207;39.772;2.706;2024-03-07T12:42:20;101115.02;;;23.58;32.04
85764;BME280;76207;39.772;2.706;2024-03-07T12:44:46;101114.63;;;23.47;32.05
85764;BME280;76207;39.772;2.706;2024-03-07T12:47:16;101115.89;;;23.54;32.26
85764;BME280;76207;39.772;2.706;2024-03-07T12:49:44;101113.15;;;23.66;32.17
85764;BME280;76207;39.772;2.706;2024-03-07T12:52:12;101117.53;;;23.67;31.91
85764;BME280;76207;39.772;2.706;2024-03-07T12:54:41;101113.30;;;23.64;31.93
85764;BME280;76207;39.772;2.706;2024-03-07T12:57:07;101114.52;;;23.64;31.92
85764;BME280;76207;39.772;2.706;2024-03-07T12:59:43;101101.92;;;23.60;31.61
85764;BME280;76207;39.772;2.706;2024-03-07T13:02:12;101101.36;;;23.52;31.94
85764;BME280;76207;39.772;2.706;2024-03-07T13:04:38;101104.32;;;23.46;32.21
85764;BME280;76207;39.772;2.706;2024-03-07T13:07:04;101097.69;;;23.43;32.66